Time;durP1;ratioP1;P1;durP2;ratioP2;P2;SDS_P1;SDS_P2;PMS_P1;PMS_P2;Temp;Humidity;BMP_temperature;BMP_pressure;BME280_temperature;BME280_humidity;BME280_pressure;Samples;Min_cycle;Max_cycle;Signal;HPM_P1;HPM_P2
2023/04/04 00:01:12;;;;;;;8.07;3.92;;;;;;;5.26;52.96;102861.75;5063351;28;20029;-64
2023/04/04 00:03:37;;;;;;;5.05;4.00;;;;;;;5.25;53.19;102862.78;5059869;28;20036;-64
2023/04/04 00:06:03;;;;;;;4.65;3.80;;;;;;;5.23;53.44;102851.97;5082820;28;20039;-64
2023/04/04 00:08:28;;;;;;;6.78;3.78;;;;;;;5.19;53.40;102858.84;5071225;28;20107;-64
2023/04/04 00:10:58;;;;;;;5.50;3.65;;;;;;;5.14;53.71;102864.81;5058929;28;20111;-64
2023/04/04 00:13:25;;;;;;;6.40;3.67;;;;;;;5.14;54.06;102864.81;5056932;28;20044;-64
2023/04/04 00:15:50;;;;;;;7.22;4.03;;;;;;;5.12;53.68;102860.53;5070115;28;20464;-63
2023/04/04 00:18:15;;;;;;;7.00;4.10;;;;;;;5.13;53.66;102865.84;5070471;28;20044;-64
2023/04/04 00:20:42;;;;;;;5.30;4.22;;;;;;;5.12;54.17;102866.03;5063776;28;20569;-63
2023/04/04 00:23:10;;;;;;;6.15;4.13;;;;;;;5.12;53.82;102869.66;5063036;28;20116;-65
2023/04/04 00:25:35;;;;;;;6.00;4.13;;;;;;;5.09;54.08;102874.63;5071287;28;20024;-64
2023/04/04 00:28:01;;;;;;;7.28;4.03;;;;;;;5.08;54.11;102868.25;5075339;28;20021;-64
2023/04/04 00:30:27;;;;;;;5.43;3.67;;;;;;;5.06;53.35;102872.19;5068294;28;20508;-64
2023/04/04 00:32:52;;;;;;;8.02;4.60;;;;;;;4.99;53.88;102868.38;5061976;28;20049;-64
2023/04/04 00:35:17;;;;;;;5.13;4.40;;;;;;;5.00;54.57;102871.00;5068977;28;20765;-65
2023/04/04 00:37:42;;;;;;;8.73;3.90;;;;;;;5.02;53.80;102868.06;5067388;28;20034;-63
2023/04/04 00:40:08;;;;;;;5.20;4.15;;;;;;;5.08;53.82;102868.25;5062426;28;20027;-64
2023/04/04 00:42:33;;;;;;;8.40;4.63;;;;;;;5.08;53.35;102870.16;5069352;28;20028;-63
2023/04/04 00:44:59;;;;;;;7.25;4.70;;;;;;;5.07;53.58;102877.56;5056743;28;20040;-64
2023/04/04 00:47:29;;;;;;;5.13;4.00;;;;;;;5.09;53.38;102869.97;5056273;28;20029;-64
2023/04/04 00:49:54;;;;;;;5.75;4.05;;;;;;;5.11;53.35;102876.19;5070190;28;20052;-64
2023/04/04 00:52:20;;;;;;;8.82;4.28;;;;;;;5.15;53.20;102873.97;5070682;28;20017;-63
2023/04/04 00:54:45;;;;;;;7.65;4.35;;;;;;;5.12;53.18;102868.78;5069372;28;20030;-64
2023/04/04 00:57:11;;;;;;;7.10;3.97;;;;;;;5.09;53.32;102878.22;5065787;28;20025;-64
2023/04/04 00:59:36;;;;;;;6.88;4.00;;;;;;;5.07;53.08;102872.06;5069596;28;20175;-64
2023/04/04 01:02:03;;;;;;;8.10;4.38;;;;;;;5.08;53.18;102873.75;5070123;28;20086;-64
2023/04/04 01:04:28;;;;;;;6.93;3.92;;;;;;;5.10;52.89;102877.19;5070344;28;20024;-65
2023/04/04 01:06:55;;;;;;;4.97;3.45;;;;;;;5.01;53.07;102875.47;5067978;28;20036;-64
2023/04/04 01:09:21;;;;;;;5.47;4.00;;;;;;;4.99;53.44;102874.78;5064331;28;20035;-62
2023/04/04 01:11:47;;;;;;;5.15;3.65;;;;;;;5.01;53.32;102871.84;5060352;28;20036;-63
2023/04/04 01:14:12;;;;;;;7.15;3.90;;;;;;;4.96;53.47;102875.09;5064640;28;20059;-64
2023/04/04 01:16:38;;;;;;;5.57;3.80;;;;;;;4.90;53.66;102873.00;5058250;28;20040;-64
2023/04/04 01:19:07;;;;;;;5.63;3.95;;;;;;;4.84;53.44;102863.53;5073657;28;20040;-64
2023/04/04 01:21:33;;;;;;;4.65;4.03;;;;;;;4.82;53.60;102861.97;5056426;28;20059;-64
2023/04/04 01:24:00;;;;;;;7.20;4.00;;;;;;;4.77;53.92;102861.63;5069524;28;20025;-63
2023/04/04 01:26:27;;;;;;;6.65;3.72;;;;;;;4.72;53.93;102853.00;5068700;28;20039;-63
2023/04/04 01:28:53;;;;;;;7.85;3.85;;;;;;;4.71;54.65;102843.88;5068418;28;20112;-63
2023/04/04 01:31:24;;;;;;;7.43;3.83;;;;;;;4.70;54.46;102841.28;5061303;28;20033;-63
2023/04/04 01:34:01;;;;;;;7.93;4.35;;;;;;;4.70;54.53;102841.28;5069118;28;20039;-64
2023/04/04 01:36:52;;;;;;;4.35;3.42;;;;;;;4.74;54.82;102846.28;5068265;28;20127;-64
2023/04/04 01:39:30;;;;;;;8.23;4.03;;;;;;;4.68;54.48;102838.72;5063636;28;20464;-64
2023/04/04 01:41:57;;;;;;;7.32;4.22;;;;;;;4.65;54.54;102834.41;5057776;28;20024;-64
2023/04/04 01:44:23;;;;;;;6.93;3.75;;;;;;;4.60;54.88;102836.78;5073331;28;20428;-63
2023/04/04 01:46:53;;;;;;;5.03;4.05;;;;;;;4.58;55.24;102837.97;5078615;28;20430;-63
2023/04/04 01:49:19;;;;;;;6.45;4.10;;;;;;;4.55;54.86;102847.41;5066873;28;20441;-63
2023/04/04 01:51:45;;;;;;;6.95;4.38;;;;;;;4.53;54.65;102835.72;5075999;28;20031;-64
2023/04/04 01:54:11;;;;;;;8.70;4.30;;;;;;;4.52;55.36;102836.75;5068233;28;20084;-64
2023/04/04 01:56:36;;;;;;;6.10;4.07;;;;;;;4.47;55.09;102838.25;5072295;28;21632;-64
2023/04/04 01:59:01;;;;;;;8.18;4.07;;;;;;;4.47;55.14;102843.75;5072466;28;20032;-63
2023/04/04 02:01:27;;;;;;;10.07;4.10;;;;;;;4.39;55.27;102839.94;5068515;28;20032;-63
2023/04/04 02:03:52;;;;;;;6.65;4.45;;;;;;;4.35;55.65;102837.69;5075745;28;20104;-63
2023/04/04 02:06:17;;;;;;;8.02;4.05;;;;;;;4.34;55.09;102841.47;5063965;28;20468;-63
2023/04/04 02:08:43;;;;;;;6.20;4.38;;;;;;;4.29;55.43;102832.84;5066026;28;20024;-64
2023/04/04 02:11:08;;;;;;;6.53;4.22;;;;;;;4.28;55.34;102842.09;5073890;28;20024;-64
2023/04/04 02:13:33;;;;;;;6.95;4.15;;;;;;;4.27;55.55;102846.75;5063530;28;20129;-64
2023/04/04 02:15:58;;;;;;;7.20;4.30;;;;;;;4.25;55.65;102840.56;5067545;28;20032;-63
2023/04/04 02:18:24;;;;;;;7.05;4.45;;;;;;;4.26;55.41;102839.53;5074454;28;20467;-63
2023/04/04 02:20:56;;;;;;;6.72;4.13;;;;;;;4.25;55.73;102842.44;5066656;28;20082;-63
2023/04/04 02:23:21;;;;;;;6.40;4.43;;;;;;;4.24;55.74;102836.06;5054111;28;20487;-63
2023/04/04 02:25:49;;;;;;;6.53;4.28;;;;;;;4.21;56.02;102835.56;5076850;28;20123;-63
2023/04/04 02:28:15;;;;;;;6.40;4.40;;;;;;;4.16;55.51;102842.38;5072185;28;20037;-63
2023/04/04 02:30:40;;;;;;;6.88;4.60;;;;;;;4.18;55.60;102848.59;5072326;28;20032;-64
2023/04/04 02:33:06;;;;;;;7.30;4.55;;;;;;;4.14;55.64;102849.06;5068816;28;20451;-63
2023/04/04 02:35:31;;;;;;;6.43;4.47;;;;;;;4.12;55.94;102851.09;5066014;28;20047;-64
2023/04/04 02:37:56;;;;;;;8.48;4.03;;;;;;;4.08;55.75;102856.06;5063305;28;20033;-64
2023/04/04 02:40:22;;;;;;;6.30;4.80;;;;;;;4.08;55.84;102860.69;5058699;28;20054;-62
2023/04/04 02:42:47;;;;;;;5.15;3.92;;;;;;;4.08;55.80;102858.81;5068839;28;20082;-64
2023/04/04 02:45:13;;;;;;;6.68;4.53;;;;;;;4.04;55.61;102856.56;5063735;28;20017;-63
2023/04/04 02:47:39;;;;;;;9.10;4.90;;;;;;;4.02;55.56;102843.00;5070597;28;20388;-63
2023/04/04 02:50:05;;;;;;;6.25;4.30;;;;;;;4.01;56.25;102846.78;5071783;28;20384;-63
2023/04/04 02:52:31;;;;;;;6.38;4.57;;;;;;;4.01;56.00;102849.50;5066372;28;20047;-64
2023/04/04 02:54:57;;;;;;;7.22;4.40;;;;;;;3.98;56.10;102843.47;5073258;28;20043;-64
2023/04/04 02:57:22;;;;;;;8.73;4.40;;;;;;;4.00;56.06;102833.16;5074338;28;20400;-64
2023/04/04 02:59:47;;;;;;;7.20;4.13;;;;;;;3.98;56.00;102847.09;5072702;28;20464;-64
2023/04/04 03:02:12;;;;;;;7.40;4.45;;;;;;;3.99;55.89;102837.81;5069572;28;20036;-64
2023/04/04 03:04:38;;;;;;;7.10;4.20;;;;;;;3.98;56.28;102836.09;5069032;28;20024;-65
2023/04/04 03:07:03;;;;;;;7.25;4.65;;;;;;;3.95;55.97;102839.16;5067935;28;20991;-64
2023/04/04 03:09:29;;;;;;;6.78;3.88;;;;;;;3.98;55.71;102835.22;5059568;28;20167;-65
2023/04/04 03:11:54;;;;;;;6.57;3.60;;;;;;;3.97;55.70;102839.88;5066218;28;20513;-65
2023/04/04 03:14:20;;;;;;;5.85;4.15;;;;;;;3.96;55.69;102834.50;5071571;28;20028;-63
2023/04/04 03:16:48;;;;;;;6.85;4.40;;;;;;;3.92;55.65;102847.72;5066486;28;20029;-63
2023/04/04 03:19:13;;;;;;;7.85;4.30;;;;;;;3.92;55.65;102847.72;5071038;28;20388;-63
2023/04/04 03:21:38;;;;;;;7.80;4.22;;;;;;;3.88;56.02;102843.56;5062294;28;20035;-63
2023/04/04 03:24:04;;;;;;;7.28;4.53;;;;;;;3.90;55.92;102853.38;5079816;28;20047;-63
2023/04/04 03:26:29;;;;;;;8.73;4.65;;;;;;;3.89;55.84;102853.50;5066055;28;20480;-63
2023/04/04 03:28:55;;;;;;;8.68;4.25;;;;;;;3.89;55.74;102840.66;5054843;28;20159;-63
2023/04/04 03:31:20;;;;;;;8.55;4.70;;;;;;;3.87;55.79;102850.09;5061557;28;20060;-63
2023/04/04 03:33:46;;;;;;;7.25;4.32;;;;;;;3.82;56.19;102847.81;5072049;28;20376;-63
2023/04/04 03:36:12;;;;;;;7.32;4.70;;;;;;;3.78;55.75;102849.16;5071813;28;20039;-64
2023/04/04 03:38:37;;;;;;;6.55;4.40;;;;;;;3.76;55.73;102836.59;5075298;28;20381;-64
2023/04/04 03:41:03;;;;;;;6.78;4.57;;;;;;;3.74;56.00;102833.16;5071283;28;20029;-63
2023/04/04 03:43:30;;;;;;;8.02;4.75;;;;;;;3.73;55.88;102825.94;5070259;28;20035;-63
2023/04/04 03:46:03;;;;;;;6.38;4.70;;;;;;;3.70;56.50;102824.38;5067642;28;20032;-63
2023/04/04 03:48:28;;;;;;;;;;;;;;;3.92;55.39;102825.72;5064410;28;20040;-64
2023/04/04 03:50:58;;;;;;;8.82;4.70;;;;;;;3.67;55.94;102825.56;5068742;28;19924;-65
2023/04/04 03:53:27;;;;;;;10.40;4.22;;;;;;;3.63;56.05;102815.06;5071046;28;20024;-64
2023/04/04 03:55:54;;;;;;;8.75;4.40;;;;;;;3.60;56.17;102815.38;5066116;28;20467;-65
2023/04/04 03:58:20;;;;;;;6.47;4.57;;;;;;;3.57;56.29;102815.66;5069997;28;20036;-64
2023/04/04 04:00:45;;;;;;;7.55;4.57;;;;;;;3.56;56.15;102812.06;5067287;28;20040;-64
2023/04/04 04:03:10;;;;;;;8.98;4.82;;;;;;;3.54;56.23;102816.88;5067911;28;20021;-65
2023/04/04 04:05:36;;;;;;;8.60;5.25;;;;;;;3.54;56.06;102811.38;5058535;28;20036;-65
2023/04/04 04:08:01;;;;;;;8.85;4.63;;;;;;;3.55;55.84;102823.22;5064259;28;20052;-64
2023/04/04 04:10:26;;;;;;;7.70;4.53;;;;;;;3.52;56.11;102824.41;5071687;28;20115;-64
2023/04/04 04:12:51;;;;;;;7.47;4.53;;;;;;;3.51;56.24;102832.81;5069762;28;20057;-64
2023/04/04 04:15:17;;;;;;;8.27;4.40;;;;;;;3.49;56.73;102821.97;5071098;28;20033;-63
2023/04/04 04:17:43;;;;;;;6.10;4.32;;;;;;;3.45;56.69;102820.53;5068342;28;20074;-63
2023/04/04 04:20:08;;;;;;;7.88;4.45;;;;;;;3.44;56.76;102821.56;5052390;28;20025;-64
2023/04/04 04:22:34;;;;;;;7.07;4.68;;;;;;;3.43;56.46;102825.34;5061534;28;20082;-64
2023/04/04 04:25:00;;;;;;;6.80;4.57;;;;;;;3.40;57.18;102815.53;5067476;28;20114;-63
2023/04/04 04:27:25;;;;;;;8.10;4.80;;;;;;;3.38;56.92;102817.59;5071281;28;20040;-63
2023/04/04 04:29:51;;;;;;;9.07;5.35;;;;;;;3.35;56.80;102814.28;5074927;28;20496;-62
2023/04/04 04:32:17;;;;;;;7.13;5.03;;;;;;;3.33;56.53;102817.19;5069820;28;20611;-62
2023/04/04 04:34:42;;;;;;;10.65;5.38;;;;;;;3.32;56.59;102811.88;5068042;28;20082;-63
2023/04/04 04:37:08;;;;;;;8.40;5.22;;;;;;;3.32;57.00;102818.22;5069941;28;20029;-63
2023/04/04 04:39:34;;;;;;;5.40;4.75;;;;;;;3.30;57.29;102813.88;5069495;28;20028;-64
2023/04/04 04:41:59;;;;;;;6.80;5.10;;;;;;;3.27;56.86;102812.34;5067410;28;20048;-64
2023/04/04 04:44:25;;;;;;;7.47;4.80;;;;;;;3.29;56.64;102814.91;5071323;28;20024;-64
2023/04/04 04:46:50;;;;;;;7.28;5.05;;;;;;;3.30;56.45;102825.75;5068748;28;20044;-63
2023/04/04 04:49:16;;;;;;;5.97;4.80;;;;;;;3.24;57.17;102820.03;5088177;28;20107;-63
2023/04/04 04:51:41;;;;;;;6.95;5.00;;;;;;;3.22;56.96;102813.81;5070315;28;20479;-63
2023/04/04 04:54:07;;;;;;;5.95;5.20;;;;;;;3.23;57.52;102823.78;5068117;28;20039;-63
2023/04/04 04:56:32;;;;;;;7.40;5.03;;;;;;;3.18;57.35;102830.63;5067191;28;20028;-64
2023/04/04 04:58:57;;;;;;;7.65;5.05;;;;;;;3.17;57.17;102837.09;5090712;28;20099;-64
2023/04/04 05:01:23;;;;;;;7.85;4.82;;;;;;;3.15;56.59;102846.53;5057545;28;20036;-63
2023/04/04 05:03:48;;;;;;;8.20;4.63;;;;;;;3.15;57.23;102847.38;5068178;28;20451;-63
2023/04/04 05:06:14;;;;;;;8.65;5.50;;;;;;;3.15;57.24;102854.75;5063478;28;20021;-63
2023/04/04 05:08:39;;;;;;;11.07;5.25;;;;;;;3.13;57.18;102854.03;5069297;28;20024;-64
2023/04/04 05:11:04;;;;;;;10.63;5.15;;;;;;;3.09;56.73;102860.84;5074166;28;20036;-63
2023/04/04 05:13:30;;;;;;;7.93;5.40;;;;;;;3.10;57.24;102868.91;5067437;28;20187;-63
2023/04/04 05:15:55;;;;;;;7.63;5.20;;;;;;;3.09;57.00;102858.97;5068241;28;20410;-63
2023/04/04 05:18:21;;;;;;;6.85;5.00;;;;;;;3.08;57.23;102851.75;5074954;28;20182;-63
2023/04/04 05:20:52;;;;;;;9.02;5.10;;;;;;;3.06;57.59;102856.53;5067531;28;20024;-63
2023/04/04 05:23:17;;;;;;;8.85;4.88;;;;;;;3.08;57.52;102853.66;5064182;28;20476;-63
2023/04/04 05:25:42;;;;;;;6.22;4.80;;;;;;;3.07;56.85;102852.78;5068650;28;20043;-63
2023/04/04 05:28:08;;;;;;;8.25;5.40;;;;;;;3.06;57.33;102853.78;5072747;28;20431;-63
2023/04/04 05:30:33;;;;;;;12.98;5.40;;;;;;;3.07;57.43;102852.78;5068917;28;20035;-63
2023/04/04 05:32:58;;;;;;;7.63;5.22;;;;;;;3.07;57.80;102854.66;5068049;28;20020;-63
2023/04/04 05:35:24;;;;;;;6.82;4.90;;;;;;;3.06;58.00;102861.16;5069793;28;20053;-63
2023/04/04 05:37:50;;;;;;;8.10;5.60;;;;;;;3.05;57.75;102852.06;5061754;28;20506;-63
2023/04/04 05:40:15;;;;;;;10.95;5.60;;;;;;;3.06;57.52;102861.16;5066502;28;20024;-63
2023/04/04 05:42:41;;;;;;;12.90;5.88;;;;;;;3.10;57.90;102860.69;5070105;28;20388;-64
2023/04/04 05:45:07;;;;;;;9.07;6.07;;;;;;;3.13;58.07;102863.13;5066088;28;20110;-64
2023/04/04 05:47:32;;;;;;;8.13;5.78;;;;;;;3.12;58.27;102866.03;5067438;28;20430;-64
2023/04/04 05:49:58;;;;;;;6.72;5.63;;;;;;;3.15;57.52;102866.59;5067141;28;20029;-64
2023/04/04 05:52:23;;;;;;;13.13;6.20;;;;;;;3.16;57.63;102867.44;5063406;28;20527;-64
2023/04/04 05:54:48;;;;;;;6.97;5.10;;;;;;;3.17;58.00;102866.41;5078059;28;20043;-65
2023/04/04 05:57:14;;;;;;;9.05;5.22;;;;;;;3.24;57.49;102875.75;5065225;28;20036;-64
2023/04/04 05:59:39;;;;;;;7.82;5.68;;;;;;;3.30;58.27;102871.53;5073039;28;20069;-63
2023/04/04 06:02:05;;;;;;;8.00;5.80;;;;;;;3.39;58.22;102865.13;5069905;28;20086;-65
2023/04/04 06:04:30;;;;;;;8.13;5.68;;;;;;;3.40;58.07;102862.19;5069184;28;20070;-63
2023/04/04 06:06:55;;;;;;;8.23;5.72;;;;;;;3.49;57.45;102862.28;5068338;28;20476;-63
2023/04/04 06:09:20;;;;;;;9.45;5.68;;;;;;;3.57;57.64;102862.34;5071057;28;20028;-63
2023/04/04 06:11:46;;;;;;;10.88;6.10;;;;;;;3.63;56.85;102851.59;5057504;28;20495;-66
2023/04/04 06:14:11;;;;;;;9.05;5.50;;;;;;;3.76;56.47;102864.06;5065791;28;20035;-64
2023/04/04 06:16:36;;;;;;;11.48;6.00;;;;;;;3.85;55.87;102860.34;5075240;28;20039;-62
2023/04/04 06:19:02;;;;;;;9.43;6.25;;;;;;;3.94;55.67;102864.91;5062623;28;20712;-63
2023/04/04 06:21:27;;;;;;;10.85;6.57;;;;;;;4.02;55.87;102870.47;5065230;28;20080;-65
2023/04/04 06:23:52;;;;;;;8.75;5.93;;;;;;;4.07;55.48;102873.59;5068962;28;20028;-65
2023/04/04 06:26:18;;;;;;;10.75;6.07;;;;;;;4.17;55.32;102868.84;5062911;28;20392;-63
2023/04/04 06:28:49;;;;;;;8.15;6.30;;;;;;;4.30;54.71;102875.81;5050860;28;20036;-63
2023/04/04 06:31:17;;;;;;;8.32;5.95;;;;;;;4.37;54.34;102869.50;5062126;28;20594;-65
2023/04/04 06:33:43;;;;;;;10.15;6.72;;;;;;;4.47;53.89;102876.75;5060729;28;20041;-64
2023/04/04 06:36:08;;;;;;;8.57;5.82;;;;;;;4.58;53.47;102884.72;5075524;28;20032;-63
2023/04/04 06:38:33;;;;;;;8.60;6.22;;;;;;;4.65;54.00;102881.16;5062158;28;20024;-64
2023/04/04 06:40:59;;;;;;;8.68;6.30;;;;;;;4.67;53.13;102887.34;5067366;28;20032;-64
2023/04/04 06:43:24;;;;;;;8.75;6.25;;;;;;;4.76;53.54;102884.66;5085492;28;20471;-64
2023/04/04 06:45:50;;;;;;;8.93;6.30;;;;;;;4.82;53.46;102878.47;5057636;28;20036;-63
2023/04/04 06:48:15;;;;;;;8.70;6.45;;;;;;;4.86;53.23;102874.38;5068386;28;20032;-65
2023/04/04 06:50:41;;;;;;;9.23;6.85;;;;;;;4.92;53.06;102882.81;5068571;28;20066;-63
2023/04/04 06:53:06;;;;;;;11.88;6.60;;;;;;;4.99;53.35;102887.66;5086329;28;20067;-67
2023/04/04 06:55:33;;;;;;;7.45;6.10;;;;;;;4.99;52.98;102893.16;5062908;28;20025;-63
2023/04/04 06:57:58;;;;;;;9.95;6.35;;;;;;;5.02;52.86;102893.69;5071293;28;20032;-63
2023/04/04 07:00:23;;;;;;;9.05;6.60;;;;;;;5.07;52.30;102894.06;5064580;28;20490;-64
2023/04/04 07:02:49;;;;;;;13.98;7.00;;;;;;;5.13;52.12;102887.03;5064197;28;20044;-65
2023/04/04 07:05:16;;;;;;;12.25;6.25;;;;;;;5.17;52.49;102889.25;5062212;28;20032;-65
2023/04/04 07:07:42;;;;;;;13.05;7.13;;;;;;;5.17;52.30;102888.41;5062538;28;20488;-60
2023/04/04 07:10:08;;;;;;;9.55;6.72;;;;;;;5.19;52.10;102889.13;5064915;28;20047;-64
2023/04/04 07:12:33;;;;;;;10.23;6.90;;;;;;;5.21;52.48;102891.69;5056718;28;20462;-64
2023/04/04 07:14:58;;;;;;;13.52;6.93;;;;;;;5.23;52.07;102892.41;5069540;28;20036;-64
2023/04/04 07:17:24;;;;;;;7.25;6.40;;;;;;;5.26;52.29;102898.41;5068098;28;20060;-61
2023/04/04 07:19:49;;;;;;;9.05;6.57;;;;;;;5.30;52.53;102896.19;5067432;28;20028;-61
2023/04/04 07:22:15;;;;;;;10.82;6.68;;;;;;;5.36;51.95;102893.63;5070191;28;20024;-61
2023/04/04 07:24:41;;;;;;;7.43;6.60;;;;;;;5.42;51.91;102892.06;5062438;28;20075;-61
2023/04/04 07:27:06;;;;;;;9.63;7.20;;;;;;;5.48;52.60;102883.16;5067991;28;20064;-61
2023/04/04 07:29:31;;;;;;;11.63;6.85;;;;;;;5.56;52.81;102883.16;5069278;28;20067;-61
2023/04/04 07:31:57;;;;;;;9.25;7.07;;;;;;;5.66;53.14;102881.09;5063680;28;20134;-61
2023/04/04 07:34:24;;;;;;;9.60;6.50;;;;;;;5.76;52.49;102877.31;5067128;28;20073;-61
2023/04/04 07:36:50;;;;;;;9.73;6.35;;;;;;;5.81;51.69;102869.38;5068603;28;20422;-61
2023/04/04 07:39:15;;;;;;;12.90;6.63;;;;;;;5.95;51.51;102870.63;5066969;28;20096;-62
2023/04/04 07:41:41;;;;;;;8.85;6.15;;;;;;;6.05;51.83;102865.78;5083452;28;20028;-62
2023/04/04 07:44:06;;;;;;;8.48;6.00;;;;;;;6.18;51.09;102879.06;5070138;28;20058;-62
2023/04/04 07:46:31;;;;;;;9.13;6.22;;;;;;;6.27;51.14;102875.25;5060308;28;20086;-61
2023/04/04 07:48:57;;;;;;;9.35;6.05;;;;;;;6.39;50.98;102879.34;5070589;28;20024;-61
2023/04/04 07:51:28;;;;;;;9.10;6.43;;;;;;;6.53;50.88;102883.28;5061672;28;20033;-62
2023/04/04 07:53:54;;;;;;;10.85;5.90;;;;;;;6.64;49.86;102871.84;5069823;28;20039;-61
2023/04/04 07:56:22;;;;;;;9.05;5.90;;;;;;;6.75;49.04;102873.38;5068066;28;20032;-61
2023/04/04 07:58:50;;;;;;;7.80;5.47;;;;;;;6.86;49.44;102873.84;5069934;28;20468;-61
2023/04/04 08:01:15;;;;;;;9.13;5.47;;;;;;;6.97;48.69;102883.63;5065426;28;20486;-60
2023/04/04 08:03:41;;;;;;;9.55;5.82;;;;;;;7.07;47.80;102884.28;5073006;28;20059;-62
2023/04/04 08:06:06;;;;;;;10.07;5.55;;;;;;;7.14;46.78;102882.50;5078062;28;20247;-62
2023/04/04 08:08:32;;;;;;;7.68;5.10;;;;;;;7.26;47.10;102877.44;5063567;28;20056;-62
2023/04/04 08:10:57;;;;;;;7.45;4.90;;;;;;;7.34;46.87;102876.53;5068562;28;20040;-63
2023/04/04 08:13:22;;;;;;;9.20;4.82;;;;;;;7.46;46.08;102876.97;5065599;28;20052;-61
2023/04/04 08:15:48;;;;;;;6.70;4.70;;;;;;;7.52;45.53;102885.41;5063491;28;20379;-61
2023/04/04 08:18:14;;;;;;;6.45;4.20;;;;;;;7.62;44.52;102883.25;5065849;28;20124;-61
2023/04/04 08:20:39;;;;;;;8.63;5.22;;;;;;;7.74;45.14;102878.16;5076854;28;20097;-61
2023/04/04 08:23:05;;;;;;;9.25;4.80;;;;;;;7.85;45.34;102876.84;5070547;28;20036;-61
2023/04/04 08:25:30;;;;;;;8.52;4.63;;;;;;;7.87;44.72;102880.28;5066158;28;20102;-61
2023/04/04 08:27:55;;;;;;;8.52;4.50;;;;;;;7.93;43.85;102881.44;5070352;28;20464;-62
2023/04/04 08:30:21;;;;;;;7.32;4.75;;;;;;;8.00;44.17;102883.28;5067375;28;20039;-61
2023/04/04 08:32:47;;;;;;;8.00;4.18;;;;;;;8.10;42.29;102875.59;5068527;28;20435;-62
2023/04/04 08:35:13;;;;;;;7.10;3.92;;;;;;;8.16;41.52;102873.97;5049570;28;20074;-61
2023/04/04 08:37:43;;;;;;;5.70;3.40;;;;;;;8.25;41.45;102883.03;5059958;28;20037;-62
2023/04/04 08:40:09;;;;;;;5.90;4.20;;;;;;;8.31;41.90;102872.09;5066658;28;20024;-62
2023/04/04 08:42:35;;;;;;;7.70;3.90;;;;;;;8.31;41.40;102866.56;5070019;28;20097;-62
2023/04/04 08:45:03;;;;;;;4.70;3.60;;;;;;;8.40;40.88;102866.50;5068953;28;20032;-60
2023/04/04 08:47:31;;;;;;;4.88;3.22;;;;;;;8.53;40.83;102866.72;5066884;28;20051;-61
2023/04/04 08:50:00;;;;;;;5.60;3.20;;;;;;;8.58;39.73;102862.31;5072012;28;20127;-61
2023/04/04 08:52:27;;;;;;;6.05;3.30;;;;;;;8.70;40.26;102856.31;5061486;28;20490;-63
2023/04/04 08:54:52;;;;;;;4.25;3.05;;;;;;;8.74;38.99;102860.41;5059989;28;20503;-64
2023/04/04 08:57:18;;;;;;;7.38;3.20;;;;;;;8.83;39.08;102862.00;5068259;28;20063;-65
2023/04/04 08:59:43;;;;;;;6.00;3.17;;;;;;;8.84;38.64;102860.94;5063573;28;20161;-66
2023/04/04 09:02:08;;;;;;;5.85;3.20;;;;;;;8.91;39.36;102856.38;5059851;28;20029;-67
2023/04/04 09:04:34;;;;;;;6.35;3.10;;;;;;;8.97;38.05;102855.59;5068743;28;20357;-68
2023/04/04 09:07:02;;;;;;;6.68;3.42;;;;;;;9.02;39.04;102858.66;5065482;28;20036;-66
2023/04/04 09:09:28;;;;;;;6.15;2.70;;;;;;;9.13;38.70;102861.97;5058451;28;20158;-65
2023/04/04 09:11:54;;;;;;;5.53;2.80;;;;;;;9.17;37.32;102861.38;5058385;28;20120;-66
2023/04/04 09:14:20;;;;;;;4.07;2.00;;;;;;;9.17;36.20;102858.63;5073978;28;20035;-65
2023/04/04 09:16:45;;;;;;;6.03;3.00;;;;;;;9.15;36.45;102859.84;5060232;28;20025;-66
2023/04/04 09:19:11;;;;;;;3.58;2.80;;;;;;;9.12;37.55;102857.47;5068282;28;20084;-67
2023/04/04 09:21:36;;;;;;;7.18;2.50;;;;;;;9.18;37.00;102865.00;5065615;28;20040;-64
2023/04/04 09:24:02;;;;;;;7.65;2.67;;;;;;;9.17;36.57;102866.06;5064096;28;20031;-60
2023/04/04 09:26:27;;;;;;;5.50;2.80;;;;;;;9.17;37.12;102860.53;5058813;28;20069;-60
2023/04/04 09:28:52;;;;;;;5.93;2.83;;;;;;;9.15;36.33;102859.84;5065971;28;20032;-60
2023/04/04 09:31:18;;;;;;;4.63;2.70;;;;;;;9.10;35.52;102864.06;5068180;28;20033;-60
2023/04/04 09:33:43;;;;;;;6.85;2.70;;;;;;;9.09;36.43;102865.13;5060590;28;20203;-60
2023/04/04 09:36:11;;;;;;;4.22;3.13;;;;;;;9.10;36.26;102861.31;5061511;28;20370;-62
2023/04/04 09:38:48;;;;;;;6.65;2.90;;;;;;;9.14;36.37;102858.16;5064232;28;20120;-60
2023/04/04 09:41:15;;;;;;;6.80;2.97;;;;;;;9.20;36.54;102858.25;5064314;28;20207;-60
2023/04/04 09:43:43;;;;;;;6.35;2.83;;;;;;;9.23;36.28;102857.81;5069665;28;20021;-64
2023/04/04 09:46:09;;;;;;;4.03;2.53;;;;;;;9.28;36.67;102857.25;5053342;28;20044;-64
2023/04/04 09:48:35;;;;;;;5.75;3.10;;;;;;;9.30;36.29;102855.13;5050346;28;20025;-64
2023/04/04 09:51:06;;;;;;;5.78;3.28;;;;;;;9.34;37.18;102859.22;5061864;28;20198;-64
2023/04/04 09:53:38;;;;;;;6.57;3.13;;;;;;;9.39;36.88;102847.56;5062067;28;20028;-65
2023/04/04 09:56:05;;;;;;;3.45;2.40;;;;;;;9.41;35.98;102845.47;5060623;28;20032;-64
2023/04/04 09:58:34;;;;;;;5.10;2.70;;;;;;;9.49;36.78;102843.41;5062291;28;20040;-64
2023/04/04 10:01:01;;;;;;;9.00;3.20;;;;;;;9.49;35.64;102848.09;5064990;28;20111;-65
2023/04/04 10:03:29;;;;;;;5.15;2.67;;;;;;;9.57;37.07;102846.06;5085134;28;20062;-65
2023/04/04 10:06:06;;;;;;;6.88;3.25;;;;;;;9.55;36.38;102847.31;5072814;28;20472;-65
2023/04/04 10:08:32;;;;;;;6.03;2.90;;;;;;;9.52;34.61;102836.63;5073728;28;20040;-65
2023/04/04 10:10:59;;;;;;;5.75;3.22;;;;;;;9.56;35.55;102849.03;5062631;28;20029;-61
2023/04/04 10:13:32;;;;;;;6.47;3.20;;;;;;;9.52;35.11;102836.63;5065318;28;20053;-60
2023/04/04 10:15:59;;;;;;;5.60;3.05;;;;;;;9.54;34.65;102838.13;5067017;28;20468;-59
2023/04/04 10:18:26;;;;;;;5.25;3.05;;;;;;;9.52;35.12;102840.25;5060137;28;20016;-64
2023/04/04 10:20:53;;;;;;;5.40;2.63;;;;;;;9.52;34.58;102834.72;5069894;28;20452;-64
2023/04/04 10:23:22;;;;;;;5.53;3.00;;;;;;;9.56;34.79;102827.72;5067077;28;20107;-64
2023/04/04 10:25:48;;;;;;;5.45;3.35;;;;;;;9.53;35.02;102830.88;5059532;28;20115;-64
2023/04/04 10:28:13;;;;;;;6.88;3.08;;;;;;;9.58;36.40;102836.66;5071296;28;20119;-64
2023/04/04 10:30:48;;;;;;;5.72;3.10;;;;;;;9.63;36.86;102832.44;5083465;28;20028;-61
2023/04/04 10:33:40;;;;;;;7.03;3.15;;;;;;;9.74;37.32;102835.53;5065265;28;20472;-61
2023/04/04 10:36:08;;;;;;;4.80;3.10;;;;;;;9.84;36.27;102827.75;5065270;28;20051;-60
2023/04/04 10:38:40;;;;;;;5.10;3.10;;;;;;;9.92;36.07;102821.19;5076297;28;20036;-60
2023/04/04 10:41:06;;;;;;;;;;;;;;;10.04;38.29;102827.06;5086643;28;20043;-61
2023/04/04 10:43:34;;;;;;;7.03;3.13;;;;;;;10.00;36.27;102821.06;5066799;28;19920;-61
2023/04/04 10:46:07;;;;;;;5.57;2.85;;;;;;;10.02;36.40;102821.72;5069608;28;20032;-61
2023/04/04 10:48:32;;;;;;;7.53;3.80;;;;;;;10.01;35.22;102816.34;5066569;28;20078;-64
2023/04/04 10:50:58;;;;;;;4.30;2.85;;;;;;;10.03;36.37;102800.38;5070840;28;20033;-61
2023/04/04 10:53:24;;;;;;;5.90;3.13;;;;;;;10.09;36.59;102805.97;5065861;28;20101;-66
2023/04/04 10:55:51;;;;;;;6.43;3.03;;;;;;;10.02;34.86;102796.75;5067028;28;20033;-65
2023/04/04 10:58:16;;;;;;;7.35;3.35;;;;;;;10.01;34.14;102808.88;5067321;28;20029;-64
2023/04/04 11:00:51;;;;;;;4.18;3.25;;;;;;;10.04;35.33;102802.09;5068767;28;20025;-64
2023/04/04 11:03:16;;;;;;;3.42;2.70;;;;;;;10.05;35.93;102804.66;5068243;28;20399;-69
2023/04/04 11:05:46;;;;;;;4.57;2.63;;;;;;;10.07;35.00;102807.25;5070089;28;20025;-68
2023/04/04 11:08:15;;;;;;;6.15;3.22;;;;;;;9.95;34.64;102798.63;5067400;28;20479;-67
2023/04/04 11:10:46;;;;;;;4.80;2.90;;;;;;;9.93;34.22;102797.09;5069519;28;20042;-68
2023/04/04 11:13:31;;;;;;;7.45;3.00;;;;;;;9.98;35.89;102792.66;5055222;28;20052;-67
2023/04/04 11:15:58;;;;;;;8.98;3.30;;;;;;;10.04;35.45;102786.28;5051633;28;20021;-66
2023/04/04 11:18:44;;;;;;;7.30;2.95;;;;;;;10.11;36.15;102791.91;5060887;28;20392;-69
2023/04/04 11:21:22;;;;;;;7.40;3.30;;;;;;;10.09;35.72;102786.53;5063603;28;20529;-70
2023/04/04 11:23:48;;;;;;;5.47;3.03;;;;;;;10.14;35.80;102773.97;5070263;28;20444;-68
2023/04/04 11:26:18;;;;;;;3.90;2.95;;;;;;;10.23;36.20;102772.78;5068601;28;20083;-68
2023/04/04 11:28:45;;;;;;;5.47;3.22;;;;;;;10.26;36.28;102773.25;5065640;28;20087;-69